createdAt,value
2018-02-19T00:00:03.636Z,98.67
2018-02-19T00:01:03.615Z,99.52
2018-02-19T00:02:03.593Z,99.43
2018-02-19T00:03:03.564Z,99.52
2018-02-19T00:04:03.549Z,99.71
2018-02-19T00:05:03.526Z,99.43
2018-02-19T00:06:03.503Z,99.33
2018-02-19T00:07:03.485Z,98.48
2018-02-19T00:08:03.468Z,97.06
2018-02-19T00:09:03.446Z,97.25
2018-02-19T00:10:03.420Z,97.77
2018-02-19T00:11:03.397Z,97.11
2018-02-19T00:12:03.379Z,97.30
2018-02-19T00:13:03.355Z,98.05
2018-02-19T00:14:03.340Z,98.24
2018-02-19T00:15:03.319Z,98.43
2018-02-19T00:16:03.301Z,98.62
2018-02-19T00:17:03.282Z,99.00
2018-02-19T00:18:03.253Z,99.19
2018-02-19T00:19:03.265Z,99.99
2018-02-19T00:20:03.214Z,99.99
2018-02-19T00:21:03.186Z,99.76
2018-02-19T00:22:03.173Z,99.14
2018-02-19T00:23:03.146Z,99.61
2018-02-19T00:24:03.125Z,99.95
2018-02-19T00:25:03.103Z,99.99
2018-02-19T00:26:03.086Z,99.99
2018-02-19T00:27:03.084Z,99.99
2018-02-19T00:28:03.042Z,99.99
2018-02-19T00:29:03.016Z,99.99
2018-02-19T00:30:02.998Z,99.99
2018-02-19T00:31:02.977Z,99.99
2018-02-19T00:32:02.952Z,99.99
2018-02-19T00:33:02.936Z,99.99
2018-02-19T00:34:02.917Z,99.99
2018-02-19T00:35:02.890Z,99.99
2018-02-19T00:36:02.872Z,99.99
2018-02-19T00:37:02.849Z,99.99
2018-02-19T00:38:02.822Z,99.99
2018-02-19T00:39:02.803Z,99.99
2018-02-19T00:40:02.782Z,99.99
2018-02-19T00:41:02.758Z,99.99
2018-02-19T00:42:02.747Z,99.99
2018-02-19T00:43:02.716Z,99.99
2018-02-19T00:44:02.701Z,99.99
2018-02-19T00:45:02.672Z,99.99
2018-02-19T00:46:02.649Z,99.99
2018-02-19T00:47:02.636Z,99.99
2018-02-19T00:48:02.608Z,99.99
2018-02-19T00:49:02.585Z,99.99
2018-02-19T00:50:02.566Z,99.99
2018-02-19T00:51:02.550Z,99.99
2018-02-19T00:52:02.521Z,99.99
2018-02-19T00:53:02.497Z,99.99
2018-02-19T00:54:02.477Z,99.99
2018-02-19T00:55:02.457Z,99.99
2018-02-19T00:56:02.439Z,99.99
2018-02-19T00:57:02.420Z,99.99
2018-02-19T00:58:02.393Z,99.99
2018-02-19T00:59:02.368Z,99.99
2018-02-19T01:00:02.356Z,99.99
2018-02-19T01:01:02.333Z,99.99
2018-02-19T01:02:02.313Z,99.99
2018-02-19T01:03:02.285Z,99.99
2018-02-19T01:04:02.264Z,99.99
2018-02-19T01:05:02.237Z,99.99
2018-02-19T01:06:02.218Z,99.99
2018-02-19T01:07:02.203Z,99.99
2018-02-19T01:08:02.173Z,99.99
2018-02-19T01:09:02.162Z,99.99
2018-02-19T01:10:02.148Z,99.99
2018-02-19T01:11:02.117Z,99.80
2018-02-19T01:12:02.088Z,99.99
2018-02-19T01:13:02.068Z,99.99
2018-02-19T01:14:02.053Z,99.99
2018-02-19T01:15:02.025Z,99.99
2018-02-19T01:16:02.002Z,99.99
2018-02-19T01:17:01.983Z,99.99
2018-02-19T01:18:01.961Z,99.99
2018-02-19T01:19:01.941Z,99.99
2018-02-19T01:20:01.915Z,99.99
2018-02-19T01:21:01.892Z,99.99
2018-02-19T01:22:01.871Z,99.99
2018-02-19T01:23:01.848Z,99.99
2018-02-19T01:24:01.825Z,99.99
2018-02-19T01:25:01.806Z,99.99
2018-02-19T01:26:01.786Z,99.99
2018-02-19T01:27:01.761Z,99.99
2018-02-19T01:28:01.738Z,99.99
2018-02-19T01:29:01.722Z,99.99
2018-02-19T01:30:01.694Z,99.99
2018-02-19T01:31:01.674Z,99.99
2018-02-19T01:32:01.652Z,99.99
2018-02-19T01:33:01.636Z,99.99
2018-02-19T01:34:01.618Z,99.99
2018-02-19T01:35:01.586Z,99.99
2018-02-19T01:36:01.586Z,99.99
2018-02-19T01:37:01.544Z,99.99
2018-02-19T01:38:01.519Z,99.99
2018-02-19T01:39:01.510Z,99.99
2018-02-19T01:40:01.477Z,99.99
2018-02-19T01:41:01.455Z,99.99
2018-02-19T01:42:01.440Z,99.99
2018-02-19T01:43:01.421Z,99.99
2018-02-19T01:44:01.393Z,99.99
2018-02-19T01:45:01.375Z,99.99
2018-02-19T01:46:01.344Z,99.99
2018-02-19T01:47:01.326Z,99.99
2018-02-19T01:48:01.307Z,99.99
2018-02-19T01:49:01.275Z,99.99
2018-02-19T01:50:01.259Z,99.99
2018-02-19T01:51:01.239Z,99.99
2018-02-19T01:52:01.219Z,99.99
2018-02-19T01:53:01.196Z,99.99
2018-02-19T01:54:01.173Z,99.99
2018-02-19T01:55:01.145Z,99.99
2018-02-19T01:56:01.123Z,99.99
2018-02-19T01:57:01.107Z,99.99
2018-02-19T01:58:01.078Z,99.99
2018-02-19T01:59:01.061Z,99.99
2018-02-19T02:00:01.042Z,99.99
2018-02-19T02:01:01.020Z,99.99
2018-02-19T02:02:00.991Z,99.99
2018-02-19T02:03:00.972Z,99.99
2018-02-19T02:04:00.956Z,99.99
2018-02-19T02:05:00.924Z,99.99
2018-02-19T02:06:00.908Z,99.99
2018-02-19T02:07:00.886Z,99.99
2018-02-19T02:08:00.870Z,99.99
2018-02-19T02:09:00.847Z,99.99
2018-02-19T02:10:00.820Z,99.99
2018-02-19T02:11:00.793Z,99.99
2018-02-19T02:12:00.774Z,99.99
2018-02-19T02:13:00.770Z,99.99
2018-02-19T02:14:00.732Z,99.99
2018-02-19T02:15:00.707Z,99.99
2018-02-19T02:16:00.684Z,99.99
2018-02-19T02:17:00.672Z,99.99
2018-02-19T02:18:00.641Z,99.99
2018-02-19T02:19:00.622Z,99.99
2018-02-19T02:20:00.593Z,99.99
2018-02-19T02:21:00.574Z,99.99
2018-02-19T02:22:00.557Z,99.99
2018-02-19T02:23:00.529Z,99.99
2018-02-19T02:24:00.507Z,99.99
2018-02-19T02:25:00.482Z,99.99
2018-02-19T02:26:00.459Z,99.99
2018-02-19T02:27:00.443Z,99.99
2018-02-19T02:28:00.424Z,99.99
2018-02-19T02:29:00.396Z,99.99
2018-02-19T02:30:00.372Z,99.99
2018-02-19T02:31:00.348Z,99.99
2018-02-19T02:32:00.336Z,99.99
2018-02-19T02:33:00.305Z,99.99
2018-02-19T02:34:00.284Z,99.99
2018-02-19T02:35:00.263Z,99.99
2018-02-19T02:36:00.240Z,99.99
2018-02-19T02:37:00.217Z,99.99
2018-02-19T02:38:00.202Z,99.99
2018-02-19T02:39:00.172Z,99.99
2018-02-19T02:40:00.158Z,99.99
2018-02-19T02:41:00.134Z,99.99
2018-02-19T02:42:00.106Z,99.99
2018-02-19T02:43:00.086Z,99.99
2018-02-19T02:44:00.062Z,99.99
2018-02-19T02:45:00.043Z,99.99
2018-02-19T02:46:00.017Z,99.99
2018-02-19T02:47:00.010Z,99.99
2018-02-19T02:47:59.981Z,99.99
2018-02-19T02:48:59.950Z,99.99
2018-02-19T02:49:59.939Z,99.99
2018-02-19T02:50:59.921Z,99.99
2018-02-19T02:51:59.887Z,99.99
2018-02-19T02:52:59.862Z,99.99
2018-02-19T02:53:59.838Z,99.99
2018-02-19T02:54:59.825Z,99.99
2018-02-19T02:55:59.804Z,99.99
2018-02-19T02:56:59.778Z,99.99
2018-02-19T02:57:59.758Z,99.99
2018-02-19T02:58:59.729Z,99.99
2018-02-19T02:59:59.708Z,99.99
2018-02-19T03:00:59.690Z,99.99
2018-02-19T03:01:59.672Z,99.99
2018-02-19T03:02:59.646Z,99.99
2018-02-19T03:03:59.619Z,99.99
2018-02-19T03:04:59.599Z,99.99
2018-02-19T03:05:59.580Z,99.99
2018-02-19T03:06:59.558Z,99.99
2018-02-19T03:07:59.532Z,99.99
2018-02-19T03:08:59.513Z,99.99
2018-02-19T03:09:59.494Z,99.99
2018-02-19T03:10:59.465Z,99.99
2018-02-19T03:11:59.449Z,99.99
2018-02-19T03:12:59.415Z,99.99
2018-02-19T03:13:59.392Z,99.99
2018-02-19T03:14:59.374Z,99.99
2018-02-19T03:15:59.361Z,99.99
2018-02-19T03:16:59.329Z,99.99
2018-02-19T03:17:59.307Z,99.99
2018-02-19T03:18:59.291Z,99.99
2018-02-19T03:19:59.261Z,99.99
2018-02-19T03:20:59.243Z,99.99
2018-02-19T03:21:59.220Z,99.99
2018-02-19T03:22:59.199Z,99.99
2018-02-19T03:23:59.170Z,99.99
2018-02-19T03:24:59.148Z,99.99
2018-02-19T03:25:59.134Z,99.99
2018-02-19T03:26:59.106Z,99.99
2018-02-19T03:27:59.087Z,99.99
2018-02-19T03:28:59.068Z,99.99
2018-02-19T03:29:59.041Z,99.99
2018-02-19T03:30:59.023Z,99.99
2018-02-19T03:31:58.993Z,99.99
2018-02-19T03:32:58.971Z,99.99
2018-02-19T03:33:58.955Z,99.99
2018-02-19T03:34:58.932Z,99.99
2018-02-19T03:35:58.907Z,99.99
2018-02-19T03:36:58.881Z,99.99
2018-02-19T03:37:58.862Z,99.99
2018-02-19T03:38:58.843Z,99.99
2018-02-19T03:39:58.815Z,99.99
2018-02-19T03:40:58.797Z,99.99
2018-02-19T03:41:58.773Z,99.99
2018-02-19T03:42:58.752Z,99.99
2018-02-19T03:43:58.739Z,99.99
2018-02-19T03:44:58.703Z,99.99
2018-02-19T03:45:58.685Z,99.99
2018-02-19T03:46:58.666Z,99.99
2018-02-19T03:47:58.637Z,99.99
2018-02-19T03:48:58.614Z,99.99
2018-02-19T03:49:58.595Z,99.99
2018-02-19T03:50:58.576Z,99.99
2018-02-19T03:51:58.546Z,99.99
2018-02-19T03:52:58.534Z,99.99
2018-02-19T03:53:58.502Z,99.99
2018-02-19T03:54:58.481Z,99.99
2018-02-19T03:55:58.458Z,99.99
2018-02-19T03:56:58.435Z,99.99
2018-02-19T03:57:58.422Z,99.99
2018-02-19T03:58:58.398Z,99.99
2018-02-19T03:59:58.370Z,99.99
2018-02-19T04:00:58.351Z,99.99
2018-02-19T04:01:58.322Z,99.99
2018-02-19T04:02:58.300Z,99.99
2018-02-19T04:03:58.278Z,99.99
2018-02-19T04:04:58.255Z,99.99
2018-02-19T04:05:58.233Z,99.99
2018-02-19T04:06:58.214Z,99.99
2018-02-19T04:07:58.187Z,99.99
2018-02-19T04:08:58.173Z,99.99
2018-02-19T04:09:58.140Z,99.99
2018-02-19T04:10:58.120Z,99.99
2018-02-19T04:11:58.102Z,99.99
2018-02-19T04:12:58.075Z,99.99
2018-02-19T04:13:58.056Z,99.99
2018-02-19T04:14:58.031Z,99.99
2018-02-19T04:15:58.012Z,99.99
2018-02-19T04:16:57.988Z,99.99
2018-02-19T04:17:58.590Z,99.99
2018-02-19T04:18:57.949Z,99.99
2018-02-19T04:19:57.920Z,99.99
2018-02-19T04:20:57.894Z,99.99
2018-02-19T04:21:57.873Z,99.99
2018-02-19T04:22:57.853Z,99.99
2018-02-19T04:23:57.840Z,99.99
2018-02-19T04:24:57.805Z,99.99
2018-02-19T04:25:57.789Z,99.99
2018-02-19T04:26:57.766Z,99.99
2018-02-19T04:27:57.745Z,99.99
2018-02-19T04:28:57.716Z,99.99
2018-02-19T04:29:57.700Z,99.99
2018-02-19T04:30:57.677Z,99.99
2018-02-19T04:31:57.649Z,99.99
2018-02-19T04:32:57.626Z,99.99
2018-02-19T04:33:57.611Z,99.99
2018-02-19T04:34:57.581Z,99.99
2018-02-19T04:35:57.568Z,99.99
2018-02-19T04:36:57.543Z,99.99
2018-02-19T04:37:57.514Z,99.99
2018-02-19T04:38:57.498Z,99.99
2018-02-19T04:39:57.470Z,99.99
2018-02-19T04:40:57.457Z,99.99
2018-02-19T04:41:57.426Z,99.99
2018-02-19T04:42:57.404Z,99.99
2018-02-19T04:43:57.385Z,99.99
2018-02-19T04:44:57.355Z,99.99
2018-02-19T04:45:57.336Z,99.99
2018-02-19T04:46:57.314Z,99.99
2018-02-19T04:47:57.291Z,99.99
2018-02-19T04:48:57.269Z,99.99
2018-02-19T04:49:57.244Z,99.99
2018-02-19T04:50:57.227Z,99.99
2018-02-19T04:51:57.206Z,99.99
2018-02-19T04:52:57.177Z,99.99
2018-02-19T04:53:57.159Z,99.99
2018-02-19T04:54:57.132Z,99.99
2018-02-19T04:55:57.109Z,99.99
2018-02-19T04:56:57.087Z,99.99
2018-02-19T04:57:57.064Z,99.99
2018-02-19T04:58:57.042Z,99.99
2018-02-19T04:59:57.026Z,99.99
2018-02-19T05:00:56.997Z,99.99
2018-02-19T05:01:56.983Z,99.99
2018-02-19T05:02:56.952Z,99.99
2018-02-19T05:03:56.929Z,99.99
2018-02-19T05:04:56.906Z,99.99
2018-02-19T05:05:56.892Z,99.99
2018-02-19T05:06:56.869Z,99.99
2018-02-19T05:07:56.842Z,99.99
2018-02-19T05:08:56.818Z,99.99
2018-02-19T05:09:56.796Z,99.99
2018-02-19T05:10:56.774Z,99.99
2018-02-19T05:11:56.758Z,99.99
2018-02-19T05:12:56.748Z,99.99
2018-02-19T05:13:56.713Z,99.99
2018-02-19T05:14:56.700Z,99.99
2018-02-19T05:15:56.664Z,99.99
2018-02-19T05:16:56.648Z,99.99
2018-02-19T05:17:56.619Z,99.99
2018-02-19T05:18:56.603Z,99.99
2018-02-19T05:19:56.574Z,99.99
2018-02-19T05:20:56.561Z,99.99
2018-02-19T05:21:56.531Z,99.99
2018-02-19T05:22:56.564Z,99.99
2018-02-19T05:23:56.481Z,99.99
2018-02-19T05:24:56.462Z,99.99
2018-02-19T05:25:56.485Z,99.99
2018-02-19T05:26:56.420Z,99.99
2018-02-19T05:27:56.398Z,99.99
2018-02-19T05:28:56.370Z,99.99
2018-02-19T05:29:56.346Z,99.99
2018-02-19T05:30:56.333Z,99.99
2018-02-19T05:31:56.320Z,99.99
2018-02-19T05:32:56.295Z,99.99
2018-02-19T05:33:56.260Z,99.99
2018-02-19T05:34:56.234Z,99.99
2018-02-19T05:35:56.218Z,99.99
2018-02-19T05:36:56.186Z,99.99
2018-02-19T05:37:56.174Z,99.99
2018-02-19T05:38:56.147Z,99.99
2018-02-19T05:39:56.118Z,99.99
2018-02-19T05:40:56.103Z,99.99
2018-02-19T05:41:56.077Z,99.99
2018-02-19T05:42:56.051Z,99.99
2018-02-19T05:43:56.039Z,99.99
2018-02-19T05:44:56.013Z,99.99
2018-02-19T05:45:55.990Z,99.99
2018-02-19T05:46:55.974Z,99.99
2018-02-19T05:47:55.942Z,99.99
2018-02-19T05:48:55.916Z,99.99
2018-02-19T05:49:55.894Z,99.99
2018-02-19T05:50:55.871Z,99.99
2018-02-19T05:51:55.849Z,99.99
2018-02-19T05:52:55.837Z,99.99
2018-02-19T05:53:55.804Z,99.99
2018-02-19T05:54:55.788Z,99.99
2018-02-19T05:55:55.759Z,99.99
2018-02-19T05:56:55.762Z,99.99
2018-02-19T05:57:55.718Z,99.99
2018-02-19T05:58:55.705Z,99.99
2018-02-19T05:59:55.669Z,99.99
2018-02-19T06:00:55.647Z,99.99
2018-02-19T06:01:55.624Z,99.99
2018-02-19T06:02:55.601Z,99.99
2018-02-19T06:03:55.579Z,99.99
2018-02-19T06:04:55.595Z,99.99
2018-02-19T06:05:55.534Z,99.99
2018-02-19T06:06:55.518Z,99.99
2018-02-19T06:07:55.502Z,99.99
2018-02-19T06:08:55.473Z,99.99
2018-02-19T06:09:55.450Z,99.99
2018-02-19T06:10:55.428Z,99.99
2018-02-19T06:11:55.406Z,99.99
2018-02-19T06:12:55.406Z,99.99
2018-02-19T06:13:55.351Z,99.99
2018-02-19T06:14:55.329Z,99.99
2018-02-19T06:15:55.312Z,99.99
2018-02-19T06:16:55.291Z,99.99
2018-02-19T06:17:55.268Z,99.99
2018-02-19T06:18:55.252Z,99.99
2018-02-19T06:19:55.227Z,99.99
2018-02-19T06:20:55.201Z,99.99
2018-02-19T06:21:55.182Z,99.99
2018-02-19T06:22:55.163Z,99.99
2018-02-19T06:23:55.156Z,99.99
2018-02-19T06:24:55.107Z,99.99
2018-02-19T06:25:55.083Z,99.99
2018-02-19T06:26:55.064Z,99.99
2018-02-19T06:27:55.042Z,99.99
2018-02-19T06:28:55.013Z,99.99
2018-02-19T06:29:54.997Z,99.99
2018-02-19T06:30:54.975Z,99.99
2018-02-19T06:31:54.952Z,99.99
2018-02-19T06:32:54.930Z,99.99
2018-02-19T06:33:54.908Z,99.99
2018-02-19T06:34:54.892Z,99.99
2018-02-19T06:35:54.870Z,99.99
2018-02-19T06:36:54.838Z,99.99
2018-02-19T06:37:54.816Z,99.99
2018-02-19T06:38:54.794Z,99.99
2018-02-19T06:39:54.774Z,99.99
2018-02-19T06:40:54.742Z,99.99
2018-02-19T06:41:54.736Z,99.99
2018-02-19T06:42:55.962Z,99.99
2018-02-19T06:43:54.678Z,99.99
2018-02-19T06:44:54.649Z,99.99
2018-02-19T06:45:54.636Z,99.99
2018-02-19T06:46:54.607Z,99.99
2018-02-19T06:47:54.594Z,99.99
2018-02-19T06:48:54.565Z,99.99
2018-02-19T06:49:54.545Z,99.99
2018-02-19T06:50:54.517Z,99.99
2018-02-19T06:51:54.504Z,99.99
2018-02-19T06:52:54.485Z,99.99
2018-02-19T06:53:54.453Z,99.99
2018-02-19T06:54:54.434Z,99.99
2018-02-19T06:55:54.416Z,99.99
2018-02-19T06:56:54.400Z,99.99
2018-02-19T06:57:54.362Z,99.99
2018-02-19T06:58:54.349Z,99.99
2018-02-19T06:59:54.323Z,99.99
2018-02-19T07:00:54.310Z,99.99
2018-02-19T07:01:54.291Z,99.99
2018-02-19T07:02:54.256Z,99.99
2018-02-19T07:03:54.259Z,99.99
2018-02-19T07:04:54.210Z,99.99
2018-02-19T07:05:54.188Z,99.99
2018-02-19T07:06:54.168Z,99.99
2018-02-19T07:07:54.153Z,99.99
2018-02-19T07:08:54.124Z,99.99
2018-02-19T07:09:54.095Z,99.99
2018-02-19T07:10:54.069Z,99.99
2018-02-19T07:11:54.060Z,99.99
2018-02-19T07:12:54.023Z,99.99
2018-02-19T07:13:54.001Z,99.99
2018-02-19T07:14:53.985Z,99.99
2018-02-19T07:15:53.963Z,99.99
2018-02-19T07:16:53.934Z,99.99
2018-02-19T07:17:53.918Z,99.99
2018-02-19T07:18:53.918Z,99.99
2018-02-19T07:19:53.866Z,99.99
2018-02-19T07:20:53.844Z,99.99
2018-02-19T07:21:53.821Z,99.99
2018-02-19T07:22:53.799Z,99.99
2018-02-19T07:23:53.780Z,99.99
2018-02-19T07:24:53.754Z,99.99
2018-02-19T07:25:53.738Z,99.99
2018-02-19T07:26:53.723Z,99.99
2018-02-19T07:27:53.693Z,99.99
2018-02-19T07:28:53.670Z,99.99
2018-02-19T07:29:53.642Z,99.99
2018-02-19T07:30:53.629Z,99.99
2018-02-19T07:31:53.597Z,99.99
2018-02-19T07:32:53.581Z,99.99
2018-02-19T07:33:53.559Z,99.99
2018-02-19T07:34:53.530Z,99.99
2018-02-19T07:35:53.518Z,99.99
2018-02-19T07:36:53.492Z,99.99
2018-02-19T07:37:53.471Z,99.99
2018-02-19T07:38:53.453Z,99.99
2018-02-19T07:39:53.431Z,99.99
2018-02-19T07:40:53.417Z,99.99
2018-02-19T07:41:53.382Z,99.99
2018-02-19T07:42:53.356Z,99.99
2018-02-19T07:43:53.328Z,99.99
2018-02-19T07:44:53.305Z,99.99
2018-02-19T07:45:53.285Z,99.99
2018-02-19T07:46:53.271Z,99.99
2018-02-19T07:47:53.244Z,99.99
2018-02-19T07:48:53.225Z,99.99
2018-02-19T07:49:53.195Z,99.99
2018-02-19T07:50:53.214Z,99.99
2018-02-19T07:51:53.162Z,99.99
2018-02-19T07:52:53.137Z,99.99
2018-02-19T07:53:53.115Z,99.99
2018-02-19T07:54:53.083Z,99.99
2018-02-19T07:55:53.061Z,99.99
2018-02-19T07:56:53.038Z,99.99
2018-02-19T07:57:53.016Z,99.99
2018-02-19T07:58:52.997Z,99.99
2018-02-19T07:59:52.980Z,99.99
2018-02-19T08:00:52.949Z,99.99
2018-02-19T08:01:52.942Z,99.99
2018-02-19T08:02:52.917Z,99.99
2018-02-19T08:03:52.888Z,99.99
2018-02-19T08:04:52.875Z,99.99
2018-02-19T08:05:52.850Z,99.99
2018-02-19T08:06:52.837Z,99.99
2018-02-19T08:07:52.798Z,99.99
2018-02-19T08:08:52.774Z,99.99
2018-02-19T08:09:52.753Z,99.99
2018-02-19T08:10:52.731Z,99.99
2018-02-19T08:11:52.728Z,99.99
2018-02-19T08:12:52.693Z,99.99
2018-02-19T08:13:52.667Z,99.99
2018-02-19T08:14:52.654Z,99.99
2018-02-19T08:15:52.623Z,99.99
2018-02-19T08:16:52.604Z,99.99
2018-02-19T08:17:52.582Z,99.99
2018-02-19T08:18:52.568Z,99.99
2018-02-19T08:19:52.543Z,99.99
2018-02-19T08:20:52.515Z,99.99
2018-02-19T08:21:52.495Z,99.99
2018-02-19T08:22:52.476Z,99.99
2018-02-19T08:23:52.514Z,99.99
2018-02-19T08:24:52.431Z,99.99
2018-02-19T08:25:52.406Z,99.99
2018-02-19T08:26:52.390Z,99.99
2018-02-19T08:27:52.362Z,99.99
2018-02-19T08:28:52.339Z,99.99
2018-02-19T08:29:52.328Z,99.99
2018-02-19T08:30:52.298Z,99.99
2018-02-19T08:31:52.285Z,99.99
2018-02-19T08:32:52.263Z,98.33
2018-02-19T08:33:52.237Z,97.58
2018-02-19T08:34:52.219Z,96.54
2018-02-19T08:35:52.199Z,96.35
2018-02-19T08:36:52.187Z,96.83
2018-02-19T08:37:52.165Z,96.45
2018-02-19T08:38:52.135Z,97.77
2018-02-19T08:39:52.108Z,98.24
2018-02-19T08:40:52.092Z,98.24
2018-02-19T08:41:52.071Z,98.24
2018-02-19T08:42:52.045Z,98.43
2018-02-19T08:43:52.027Z,98.05
2018-02-19T08:44:52.007Z,97.86
2018-02-19T08:45:51.981Z,97.20
2018-02-19T08:46:51.959Z,97.58
2018-02-19T08:47:51.939Z,96.64
2018-02-19T08:48:51.917Z,97.20
2018-02-19T08:49:51.898Z,96.54
2018-02-19T08:50:51.888Z,97.67
2018-02-19T08:51:51.863Z,97.58
2018-02-19T08:52:51.834Z,97.96
2018-02-19T08:53:51.811Z,98.05
2018-02-19T08:54:51.798Z,96.64
2018-02-19T08:55:51.773Z,95.50
2018-02-19T08:56:51.749Z,96.64
2018-02-19T08:57:51.730Z,96.07
2018-02-19T08:58:51.715Z,96.73
2018-02-19T08:59:51.695Z,96.83
2018-02-19T09:00:51.671Z,97.20
2018-02-19T09:01:51.654Z,97.86
2018-02-19T09:02:51.624Z,97.01
2018-02-19T09:03:51.620Z,97.30
2018-02-19T09:04:51.579Z,96.92
2018-02-19T09:05:51.560Z,95.50
2018-02-19T09:06:51.537Z,96.64
2018-02-19T09:07:51.521Z,96.92
2018-02-19T09:08:51.493Z,96.35
2018-02-19T09:09:51.474Z,96.73
2018-02-19T09:10:51.462Z,96.54
2018-02-19T09:11:51.444Z,96.45
2018-02-19T09:12:51.415Z,96.73
2018-02-19T09:13:51.390Z,96.07
2018-02-19T09:14:51.370Z,95.59
2018-02-19T09:15:51.364Z,95.55
2018-02-19T09:16:51.326Z,95.64
2018-02-19T09:17:51.304Z,95.26
2018-02-19T09:18:51.316Z,94.79
2018-02-19T09:19:51.275Z,94.23
2018-02-19T09:20:51.249Z,94.42
2018-02-19T09:21:51.217Z,94.23
2018-02-19T09:22:51.200Z,94.32
2018-02-19T09:23:51.190Z,93.09
2018-02-19T09:24:51.165Z,92.61
2018-02-19T09:25:51.137Z,93.85
2018-02-19T09:26:51.124Z,93.85
2018-02-19T09:27:51.099Z,92.99
2018-02-19T09:28:51.076Z,92.43
2018-02-19T09:29:51.057Z,92.61
2018-02-19T09:30:51.038Z,92.24
2018-02-19T09:31:51.015Z,92.52
2018-02-19T09:32:50.989Z,91.96
2018-02-19T09:33:50.976Z,92.05
2018-02-19T09:34:50.947Z,91.29
2018-02-19T09:35:50.931Z,91.20
2018-02-19T09:36:50.911Z,91.48
2018-02-19T09:37:50.887Z,92.33
2018-02-19T09:38:50.880Z,92.71
2018-02-19T09:39:50.848Z,92.24
2018-02-19T09:40:50.818Z,92.99
2018-02-19T09:41:50.806Z,92.80
2018-02-19T09:42:50.792Z,92.14
2018-02-19T09:43:50.767Z,92.14
2018-02-19T09:44:50.757Z,92.33
2018-02-19T09:45:50.719Z,92.05
2018-02-19T09:46:50.692Z,92.43
2018-02-19T09:47:50.716Z,93.47
2018-02-19T09:48:50.655Z,93.18
2018-02-19T09:49:50.638Z,92.05
2018-02-19T09:50:50.617Z,92.05
2018-02-19T09:51:50.591Z,91.48
2018-02-19T09:52:50.575Z,92.05
2018-02-19T09:53:50.552Z,92.05
2018-02-19T09:54:50.535Z,91.53
2018-02-19T09:55:50.511Z,90.91
2018-02-19T09:56:50.495Z,90.77
2018-02-19T09:57:50.466Z,90.96
2018-02-19T09:58:50.450Z,90.20
2018-02-19T09:59:50.425Z,89.82
2018-02-19T10:00:50.405Z,88.87
2018-02-19T10:01:50.390Z,89.25
2018-02-19T10:02:50.371Z,88.68
2018-02-19T10:03:50.348Z,88.78
2018-02-19T10:04:50.320Z,88.49
2018-02-19T10:05:50.304Z,88.78
2018-02-19T10:06:50.284Z,88.40
2018-02-19T10:07:50.265Z,88.49
2018-02-19T10:08:50.246Z,88.02
2018-02-19T10:09:50.225Z,87.46
2018-02-19T10:10:50.202Z,87.36
2018-02-19T10:11:50.182Z,87.69
2018-02-19T10:12:50.160Z,87.40
2018-02-19T10:13:50.148Z,87.12
2018-02-19T10:14:50.118Z,85.61
2018-02-19T10:15:50.103Z,85.13
2018-02-19T10:16:50.077Z,84.94
2018-02-19T10:17:50.064Z,84.56
2018-02-19T10:18:50.038Z,83.62
2018-02-19T10:19:50.021Z,84.04
2018-02-19T10:20:50.001Z,85.08
2018-02-19T10:21:49.982Z,83.37
2018-02-19T10:22:49.969Z,81.29
2018-02-19T10:23:49.948Z,81.38
2018-02-19T10:24:49.927Z,81.95
2018-02-19T10:25:49.916Z,81.38
2018-02-19T10:26:49.892Z,81.38
2018-02-19T10:27:49.883Z,83.85
2018-02-19T10:28:49.867Z,82.62
2018-02-19T10:29:49.844Z,82.75
2018-02-19T10:30:49.832Z,80.48
2018-02-19T10:31:49.824Z,80.91
2018-02-19T10:32:49.795Z,80.53
2018-02-19T10:33:49.786Z,80.34
2018-02-19T10:34:49.782Z,80.77
2018-02-19T10:35:49.747Z,81.92
2018-02-19T10:36:49.731Z,82.86
2018-02-19T10:37:49.718Z,83.71
2018-02-19T10:38:49.699Z,84.56
2018-02-19T10:39:49.682Z,84.66
2018-02-19T10:40:49.667Z,85.61
2018-02-19T10:41:49.651Z,85.51
2018-02-19T10:42:49.635Z,85.70
2018-02-19T10:43:49.632Z,85.99
2018-02-19T10:44:49.722Z,84.75
2018-02-19T10:45:49.591Z,85.13
2018-02-19T10:46:49.559Z,85.80
2018-02-19T10:47:49.546Z,84.09
2018-02-19T10:48:49.524Z,84.61
2018-02-19T10:49:49.508Z,82.90
2018-02-19T10:50:49.492Z,83.18
2018-02-19T10:51:49.482Z,81.95
2018-02-19T10:52:49.460Z,80.44
2018-02-19T10:53:49.444Z,79.68
2018-02-19T10:54:49.418Z,80.82
2018-02-19T10:55:49.408Z,82.43
2018-02-19T10:56:49.382Z,82.43
2018-02-19T10:57:49.366Z,81.06
2018-02-19T10:58:49.350Z,80.87
2018-02-19T10:59:49.334Z,82.48
2018-02-19T11:00:49.315Z,83.33
2018-02-19T11:01:49.298Z,83.52
2018-02-19T11:02:49.286Z,83.71
2018-02-19T11:03:49.267Z,83.14
2018-02-19T11:04:49.248Z,83.52
2018-02-19T11:05:49.238Z,83.56
2018-02-19T11:06:49.208Z,83.18
2018-02-19T11:07:49.196Z,81.38
2018-02-19T11:08:49.179Z,81.76
2018-02-19T11:09:49.157Z,83.28
2018-02-19T11:10:49.143Z,82.81
2018-02-19T11:11:49.122Z,83.09
2018-02-19T11:12:49.100Z,82.62
2018-02-19T11:13:49.090Z,80.53
2018-02-19T11:14:49.067Z,80.10
2018-02-19T11:15:49.062Z,80.76
2018-02-19T11:16:49.032Z,77.83
2018-02-19T11:17:49.013Z,77.35
2018-02-19T11:18:49.004Z,78.96
2018-02-19T11:19:48.987Z,78.96
2018-02-19T11:20:48.968Z,78.39
2018-02-19T11:21:48.950Z,79.66
2018-02-19T11:22:48.935Z,77.35
2018-02-19T11:23:48.914Z,77.35
2018-02-19T11:24:48.901Z,76.87
2018-02-19T11:25:48.878Z,78.11
2018-02-19T11:26:48.869Z,78.11
2018-02-19T11:27:48.856Z,78.02
2018-02-19T11:28:48.833Z,76.87
2018-02-19T11:29:48.843Z,76.21
2018-02-19T11:30:48.812Z,76.78
2018-02-19T11:31:48.785Z,74.79
2018-02-19T11:32:48.779Z,78.30
2018-02-19T11:33:48.753Z,79.47
2018-02-19T11:34:48.738Z,78.15
2018-02-19T11:35:48.746Z,78.43
2018-02-19T11:36:48.714Z,75.96
2018-02-19T11:37:48.696Z,73.22
2018-02-19T11:38:55.378Z,73.50
2018-02-19T11:39:48.667Z,74.26
2018-02-19T11:40:48.654Z,75.78
2018-02-19T11:41:48.636Z,76.82
2018-02-19T11:42:48.628Z,75.68
2018-02-19T11:43:48.614Z,73.88
2018-02-19T11:44:48.593Z,74.16
2018-02-19T11:45:48.590Z,75.02
2018-02-19T11:46:48.561Z,75.05
2018-02-19T11:47:48.558Z,74.58
2018-02-19T11:48:48.561Z,74.20
2018-02-19T11:49:48.526Z,72.30
2018-02-19T11:50:48.500Z,73.35
2018-02-19T11:51:48.497Z,74.58
2018-02-19T11:52:48.494Z,73.44
2018-02-19T11:53:48.462Z,73.22
2018-02-19T11:54:48.442Z,73.44
2018-02-19T11:55:48.425Z,74.64
2018-02-19T11:56:48.422Z,74.35
2018-02-19T11:57:48.409Z,73.82
2018-02-19T11:58:48.400Z,73.92
2018-02-19T11:59:48.449Z,75.24
2018-02-19T12:00:48.361Z,74.11
2018-02-19T12:01:48.347Z,72.84
2018-02-19T12:02:48.332Z,72.64
2018-02-19T12:03:48.316Z,72.45
2018-02-19T12:04:48.303Z,71.73
2018-02-19T12:05:48.287Z,71.55
2018-02-19T12:06:48.280Z,70.98
2018-02-19T12:07:48.265Z,70.98
2018-02-19T12:08:48.266Z,70.54
2018-02-19T12:09:48.253Z,71.30
2018-02-19T12:10:48.237Z,70.35
2018-02-19T12:11:48.226Z,70.44
2018-02-19T12:12:48.195Z,68.54
2018-02-19T12:13:48.178Z,68.44
2018-02-19T12:14:48.172Z,66.55
2018-02-19T12:15:48.153Z,67.40
2018-02-19T12:16:48.152Z,68.92
2018-02-19T12:17:48.127Z,67.21
2018-02-19T12:18:48.114Z,67.37
2018-02-19T12:19:48.105Z,69.74
2018-02-19T12:20:48.092Z,69.52
2018-02-19T12:21:48.086Z,69.80
2018-02-19T12:22:48.079Z,71.89
2018-02-19T12:23:48.064Z,71.70
2018-02-19T12:24:48.056Z,70.94
2018-02-19T12:25:48.035Z,70.47
2018-02-19T12:26:48.029Z,70.94
2018-02-19T12:27:48.016Z,74.92
2018-02-19T12:28:48.003Z,72.78
2018-02-19T12:29:47.984Z,75.05
2018-02-19T12:30:47.975Z,73.96
2018-02-19T12:31:47.961Z,71.01
2018-02-19T12:32:47.948Z,70.69
2018-02-19T12:33:47.939Z,70.98
2018-02-19T12:34:47.939Z,71.73
2018-02-19T12:35:47.914Z,70.88
2018-02-19T12:36:47.904Z,73.07
2018-02-19T12:37:47.885Z,72.40
2018-02-19T12:38:47.882Z,70.50
2018-02-19T12:39:47.859Z,69.74
2018-02-19T12:40:47.846Z,70.88
2018-02-19T12:41:47.861Z,71.92
2018-02-19T12:42:47.821Z,71.83
2018-02-19T12:43:47.805Z,71.89
2018-02-19T12:44:47.789Z,71.89
2018-02-19T12:45:47.777Z,73.97
2018-02-19T12:46:47.764Z,75.21
2018-02-19T12:47:47.764Z,74.16
2018-02-19T12:48:47.733Z,73.41
2018-02-19T12:49:48.622Z,75.07
2018-02-19T12:50:47.709Z,76.12
2018-02-19T12:51:47.697Z,75.31